Time;durP1;ratioP1;P1;durP2;ratioP2;P2;SDS_P1;SDS_P2;PMS_P1;PMS_P2;Temp;Humidity;BMP_temperature;BMP_pressure;BME280_temperature;BME280_humidity;BME280_pressure;Samples;Min_cycle;Max_cycle;Signal;HPM_P1;HPM_P2
2023/01/30 00:00:48;;;;;;;;;;;20.10;79.90;;;;;;5094564;28;19985;-51
2023/01/30 00:03:13;;;;;;;;;;;20.10;79.90;;;;;;5095961;28;20340;-51
2023/01/30 00:05:39;;;;;;;;;;;20.10;79.90;;;;;;5095590;28;19908;-50
2023/01/30 00:08:04;;;;;;;;;;;20.20;80.00;;;;;;5095267;28;20294;-51
2023/01/30 00:10:30;;;;;;;;;;;20.10;79.70;;;;;;5095142;28;20052;-51
2023/01/30 00:12:55;;;;;;;;;;;20.20;80.00;;;;;;5095162;28;19908;-51
2023/01/30 00:15:21;;;;;;;;;;;20.20;79.90;;;;;;5095441;28;20355;-50
2023/01/30 00:17:46;;;;;;;;;;;20.20;79.70;;;;;;5095759;28;19919;-48
2023/01/30 00:20:11;;;;;;;;;;;20.20;79.70;;;;;;5095194;28;19939;-49
2023/01/30 00:22:37;;;;;;;;;;;20.20;79.70;;;;;;5077060;28;19908;-54
2023/01/30 00:25:03;;;;;;;;;;;20.20;79.90;;;;;;5077050;28;19914;-52
2023/01/30 00:27:28;;;;;;;;;;;20.20;79.90;;;;;;5095193;28;19908;-53
2023/01/30 00:29:54;;;;;;;;;;;20.20;79.90;;;;;;5094886;28;19965;-49
2023/01/30 00:32:19;;;;;;;;;;;20.20;79.80;;;;;;5095150;28;19923;-51
2023/01/30 00:34:45;;;;;;;;;;;20.20;79.50;;;;;;5095351;28;19919;-48
2023/01/30 00:37:10;;;;;;;;;;;20.20;79.90;;;;;;5076545;28;20252;-52
2023/01/30 00:39:35;;;;;;;;;;;20.20;80.00;;;;;;5094651;28;20011;-54
2023/01/30 00:47:30;;;;;;;;;;;20.10;80.20;;;;;;5094854;28;19946;-51
2023/01/30 00:49:55;;;;;;;;;;;20.10;80.40;;;;;;5094533;28;19958;-52
2023/01/30 00:52:21;;;;;;;;;;;20.00;80.70;;;;;;5094813;28;19917;-51
2023/01/30 00:54:46;;;;;;;;;;;19.90;80.90;;;;;;5076689;28;19915;-48
2023/01/30 00:57:12;;;;;;;;;;;19.90;80.90;;;;;;5095018;28;19908;-50
2023/01/30 00:59:37;;;;;;;;;;;19.90;80.90;;;;;;5094501;28;19954;-51
2023/01/30 01:02:02;;;;;;;;;;;19.90;81.00;;;;;;5076513;28;19909;-51
2023/01/30 01:04:28;;;;;;;;;;;19.90;80.90;;;;;;5076138;28;19976;-48
2023/01/30 01:06:53;;;;;;;;;;;19.90;81.10;;;;;;5094266;28;19912;-51
2023/01/30 01:09:19;;;;;;;;;;;19.90;80.90;;;;;;5094911;28;19908;-49
2023/01/30 01:11:44;;;;;;;;;;;19.90;80.60;;;;;;5094252;28;20116;-54
2023/01/30 01:14:10;;;;;;;;;;;19.90;80.60;;;;;;5094733;28;19959;-51
2023/01/30 01:16:35;;;;;;;;;;;20.00;80.50;;;;;;5094410;28;19931;-52
2023/01/30 01:19:01;;;;;;;;;;;20.00;80.40;;;;;;5094660;28;19908;-49
2023/01/30 01:21:27;;;;;;;;;;;20.10;79.90;;;;;;5094262;28;19962;-52
2023/01/30 01:23:54;;;;;;;;;;;20.10;79.90;;;;;;5094358;28;19908;-50
2023/01/30 01:26:20;;;;;;;;;;;20.20;80.00;;;;;;5094318;28;19908;-51
2023/01/30 01:28:45;;;;;;;;;;;20.30;79.80;;;;;;5094350;28;19912;-51
2023/01/30 01:31:12;;;;;;;;;;;20.30;79.80;;;;;;5094298;28;19947;-49
2023/01/30 01:33:37;;;;;;;;;;;20.40;79.50;;;;;;5076092;28;20358;-51
2023/01/30 01:36:03;;;;;;;;;;;20.40;79.60;;;;;;5075830;28;19915;-50
2023/01/30 01:38:29;;;;;;;;;;;20.40;79.50;;;;;;5093861;28;19921;-51
2023/01/30 01:41:05;;;;;;;;;;;20.40;79.70;;;;;;5093870;28;20283;-52
2023/01/30 01:43:32;;;;;;;;;;;20.30;79.70;;;;;;5093962;28;19915;-52
2023/01/30 01:46:00;;;;;;;;;;;20.30;79.70;;;;;;5076063;28;19908;-54
2023/01/30 01:48:27;;;;;;;;;;;20.30;79.70;;;;;;5093800;28;20378;-52
2023/01/30 01:50:56;;;;;;;;;;;20.30;79.60;;;;;;5093840;28;19990;-49
2023/01/30 01:53:24;;;;;;;;;;;20.20;79.90;;;;;;5094014;28;19915;-53
2023/01/30 01:55:51;;;;;;;;;;;20.20;80.00;;;;;;5093797;28;20359;-52
2023/01/30 01:58:20;;;;;;;;;;;20.20;80.00;;;;;;5093726;28;19908;-52
2023/01/30 02:00:47;;;;;;;;;;;20.10;80.20;;;;;;5093653;28;19916;-52
2023/01/30 02:03:16;;;;;;;;;;;20.10;80.10;;;;;;5092483;28;19912;-52
2023/01/30 02:05:44;;;;;;;;;;;20.20;80.10;;;;;;5075737;28;19923;-53
2023/01/30 02:08:15;;;;;;;;;;;20.10;80.40;;;;;;5095054;28;19912;-50
2023/01/30 02:10:47;;;;;;;;;;;20.20;80.20;;;;;;5100789;28;20013;-50
2023/01/30 02:13:13;;;;;;;;;;;20.20;80.30;;;;;;5075795;28;19973;-50
2023/01/30 02:15:39;;;;;;;;;;;20.20;80.10;;;;;;5075768;28;20359;-49
2023/01/30 02:18:04;;;;;;;;;;;20.30;80.20;;;;;;5070771;28;19938;-51
2023/01/30 02:20:46;;;;;;;;;;;20.30;80.00;;;;;;5093748;28;20367;-51
2023/01/30 02:23:36;;;;;;;;;;;20.30;80.10;;;;;;5095463;28;19908;-50
2023/01/30 02:26:02;;;;;;;;;;;20.40;80.00;;;;;;5097339;28;19908;-52
2023/01/30 02:28:33;;;;;;;;;;;20.40;80.00;;;;;;5094510;28;19965;-49
2023/01/30 02:31:08;;;;;;;;;;;20.40;79.90;;;;;;5069123;28;19991;-53
2023/01/30 02:33:38;;;;;;;;;;;20.40;79.60;;;;;;5092799;28;19918;-50
2023/01/30 02:36:06;;;;;;;;;;;20.40;79.70;;;;;;5097604;28;19909;-52
2023/01/30 02:38:32;;;;;;;;;;;20.40;79.90;;;;;;5097769;28;19959;-50
2023/01/30 02:41:18;;;;;;;;;;;20.40;79.50;;;;;;5083069;28;19963;-50
2023/01/30 02:43:48;;;;;;;;;;;20.40;79.70;;;;;;5095368;28;19980;-53
2023/01/30 02:46:21;;;;;;;;;;;20.40;79.80;;;;;;5103738;28;19908;-53
2023/01/30 02:48:58;;;;;;;;;;;20.30;79.90;;;;;;5115703;28;19919;-48
2023/01/30 02:51:28;;;;;;;;;;;20.30;79.90;;;;;;5117248;28;19911;-52
2023/01/30 02:53:54;;;;;;;;;;;20.30;79.90;;;;;;5117477;28;19914;-50
2023/01/30 02:56:19;;;;;;;;;;;20.30;79.90;;;;;;5106767;28;19908;-52
2023/01/30 02:58:47;;;;;;;;;;;20.30;79.90;;;;;;5093877;28;20011;-52
2023/01/30 03:01:12;;;;;;;;;;;20.30;80.00;;;;;;5078621;28;19981;-52
2023/01/30 03:03:41;;;;;;;;;;;20.30;80.20;;;;;;5092944;28;20297;-52
2023/01/30 03:06:09;;;;;;;;;;;20.30;80.00;;;;;;5086628;28;19908;-51
2023/01/30 03:08:53;;;;;;;;;;;20.30;80.00;;;;;;5096478;28;19908;-50
2023/01/30 03:11:23;;;;;;;;;;;20.30;80.00;;;;;;5096915;28;20437;-51
2023/01/30 03:13:54;;;;;;;;;;;20.30;80.30;;;;;;5073194;28;19912;-53
2023/01/30 03:16:30;;;;;;;;;;;20.40;80.10;;;;;;5117047;28;19908;-50
2023/01/30 03:18:58;;;;;;;;;;;20.40;79.90;;;;;;5096239;28;19916;-50
2023/01/30 03:21:23;;;;;;;;;;;20.40;79.70;;;;;;5091490;28;19916;-53
2023/01/30 03:23:49;;;;;;;;;;;20.40;79.90;;;;;;5096472;28;20293;-52
2023/01/30 03:26:19;;;;;;;;;;;20.40;79.80;;;;;;5096124;28;19938;-52
2023/01/30 03:28:47;;;;;;;;;;;20.30;79.80;;;;;;5096401;28;19928;-52
2023/01/30 03:31:13;;;;;;;;;;;20.40;79.90;;;;;;5095869;28;19947;-52
2023/01/30 03:33:38;;;;;;;;;;;20.40;79.80;;;;;;5095927;28;19950;-52
2023/01/30 03:36:04;;;;;;;;;;;20.40;79.60;;;;;;5089489;28;19912;-50
2023/01/30 03:38:29;;;;;;;;;;;20.40;78.70;;;;;;5083877;28;19920;-50
2023/01/30 03:40:55;;;;;;;;;;;20.40;79.80;;;;;;5096087;28;19920;-48
2023/01/30 03:43:20;;;;;;;;;;;20.40;79.60;;;;;;5111368;28;19916;-52
2023/01/30 03:45:46;;;;;;;;;;;20.40;79.70;;;;;;5116382;28;20010;-51
2023/01/30 03:48:11;;;;;;;;;;;20.40;79.70;;;;;;5080525;28;19915;-52
2023/01/30 03:50:36;;;;;;;;;;;20.40;79.80;;;;;;5088245;28;19919;-48
2023/01/30 03:53:02;;;;;;;;;;;20.40;79.30;;;;;;5089072;28;20317;-49
2023/01/30 03:55:27;;;;;;;;;;;20.30;79.70;;;;;;5077700;28;19958;-52
2023/01/30 03:57:54;;;;;;;;;;;20.30;79.80;;;;;;5096142;28;20279;-53
2023/01/30 04:00:19;;;;;;;;;;;20.30;79.90;;;;;;5077724;28;19916;-51
2023/01/30 04:02:45;;;;;;;;;;;20.30;79.90;;;;;;5095682;28;19912;-52
2023/01/30 04:05:10;;;;;;;;;;;20.30;79.80;;;;;;5087465;28;19913;-47
2023/01/30 04:07:36;;;;;;;;;;;20.30;79.80;;;;;;5071365;28;20256;-48
2023/01/30 04:10:01;;;;;;;;;;;20.30;80.10;;;;;;5095160;28;20007;-50
2023/01/30 04:12:27;;;;;;;;;;;20.20;79.90;;;;;;5108462;28;19951;-52
2023/01/30 04:14:52;;;;;;;;;;;20.30;80.00;;;;;;5115840;28;19908;-53
2023/01/30 04:17:18;;;;;;;;;;;20.20;80.20;;;;;;5115498;28;20360;-49
2023/01/30 04:19:43;;;;;;;;;;;20.30;79.90;;;;;;5097434;28;19915;-50
2023/01/30 04:22:09;;;;;;;;;;;20.30;79.80;;;;;;5098130;28;20358;-47
2023/01/30 04:24:34;;;;;;;;;;;20.30;79.90;;;;;;5095299;28;19973;-48
2023/01/30 04:26:59;;;;;;;;;;;20.30;80.00;;;;;;5094864;28;20275;-51
2023/01/30 04:29:25;;;;;;;;;;;20.30;80.00;;;;;;5094694;28;19916;-50
2023/01/30 04:31:50;;;;;;;;;;;20.30;79.90;;;;;;5095044;28;19916;-51
2023/01/30 04:34:16;;;;;;;;;;;20.30;80.00;;;;;;5095050;28;19908;-51
2023/01/30 04:36:41;;;;;;;;;;;20.30;79.80;;;;;;5094876;28;20011;-52
2023/01/30 04:39:07;;;;;;;;;;;20.30;79.90;;;;;;5094766;28;20297;-52
2023/01/30 04:41:32;;;;;;;;;;;20.30;80.00;;;;;;5094874;28;20019;-49
2023/01/30 04:43:58;;;;;;;;;;;20.30;80.00;;;;;;5076670;28;20366;-53
2023/01/30 04:46:25;;;;;;;;;;;20.30;80.00;;;;;;5093464;28;20301;-50
2023/01/30 04:48:50;;;;;;;;;;;20.30;79.70;;;;;;5094795;28;20021;-51
2023/01/30 04:51:16;;;;;;;;;;;20.30;79.90;;;;;;5076590;28;19912;-52
2023/01/30 04:53:41;;;;;;;;;;;20.30;79.80;;;;;;5095033;28;19999;-50
2023/01/30 04:56:07;;;;;;;;;;;20.20;79.90;;;;;;5094621;28;19969;-48
2023/01/30 04:58:33;;;;;;;;;;;20.10;80.10;;;;;;5094388;28;19955;-50
2023/01/30 05:01:11;;;;;;;;;;;20.00;80.20;;;;;;5094307;28;19919;-52
2023/01/30 05:03:36;;;;;;;;;;;19.90;80.30;;;;;;5094596;28;19980;-50
2023/01/30 05:06:02;;;;;;;;;;;19.80;81.00;;;;;;5094156;28;19908;-49
2023/01/30 05:08:27;;;;;;;;;;;19.70;81.20;;;;;;5094747;28;19909;-51
2023/01/30 05:10:52;;;;;;;;;;;19.60;81.70;;;;;;5094139;28;19915;-52
2023/01/30 05:13:18;;;;;;;;;;;19.50;81.70;;;;;;5094629;28;19914;-53
2023/01/30 05:15:44;;;;;;;;;;;19.50;81.90;;;;;;5094367;28;19908;-51
2023/01/30 05:18:09;;;;;;;;;;;19.40;82.00;;;;;;5094068;28;19915;-50
2023/01/30 05:20:34;;;;;;;;;;;19.30;82.20;;;;;;5094531;28;19915;-53
2023/01/30 05:23:00;;;;;;;;;;;19.20;82.40;;;;;;5094293;28;20316;-51
2023/01/30 05:25:25;;;;;;;;;;;19.10;82.50;;;;;;5094110;28;19908;-54
2023/01/30 05:27:51;;;;;;;;;;;19.10;82.40;;;;;;5094379;28;20262;-53
2023/01/30 05:30:16;;;;;;;;;;;19.00;82.80;;;;;;5093922;28;19916;-49
2023/01/30 05:32:42;;;;;;;;;;;19.00;83.00;;;;;;5094102;28;19937;-51
2023/01/30 05:35:07;;;;;;;;;;;19.00;83.10;;;;;;5094058;28;19908;-51
2023/01/30 05:37:33;;;;;;;;;;;18.90;83.10;;;;;;5075956;28;19920;-52
2023/01/30 05:39:58;;;;;;;;;;;18.80;83.20;;;;;;5093755;28;20274;-53
2023/01/30 05:42:24;;;;;;;;;;;18.70;83.20;;;;;;5094365;28;19919;-49
2023/01/30 05:44:49;;;;;;;;;;;18.70;83.40;;;;;;5093643;28;19912;-50
2023/01/30 05:47:15;;;;;;;;;;;18.70;83.40;;;;;;5093739;28;19952;-49
2023/01/30 05:49:40;;;;;;;;;;;18.60;83.60;;;;;;5094111;28;20274;-53
2023/01/30 05:52:06;;;;;;;;;;;18.50;83.60;;;;;;5093746;28;20274;-51
2023/01/30 05:54:32;;;;;;;;;;;18.50;83.70;;;;;;5094258;28;20315;-51
2023/01/30 05:56:58;;;;;;;;;;;18.50;83.60;;;;;;5093733;28;19908;-53
2023/01/30 05:59:23;;;;;;;;;;;18.50;83.70;;;;;;5097736;28;20011;-51
2023/01/30 06:01:49;;;;;;;;;;;18.40;83.70;;;;;;5097643;28;20339;-50
2023/01/30 06:04:14;;;;;;;;;;;18.40;83.70;;;;;;5097929;28;19922;-53
2023/01/30 06:06:40;;;;;;;;;;;18.30;83.70;;;;;;5097827;28;19908;-52
2023/01/30 06:09:05;;;;;;;;;;;18.30;83.90;;;;;;5079559;28;19950;-53
2023/01/30 06:11:31;;;;;;;;;;;18.20;83.80;;;;;;5097520;28;19909;-51
2023/01/30 06:13:56;;;;;;;;;;;18.20;83.80;;;;;;5097638;28;19947;-50
2023/01/30 06:16:22;;;;;;;;;;;18.20;84.00;;;;;;5097317;28;20008;-50
2023/01/30 06:18:47;;;;;;;;;;;18.10;84.00;;;;;;5097480;28;20274;-51
2023/01/30 06:21:14;;;;;;;;;;;18.10;84.10;;;;;;5097394;28;19965;-52
2023/01/30 06:23:39;;;;;;;;;;;18.10;84.20;;;;;;5097403;28;19916;-53
2023/01/30 06:26:05;;;;;;;;;;;18.00;84.20;;;;;;5079206;28;19916;-49
2023/01/30 06:28:30;;;;;;;;;;;18.00;84.30;;;;;;5097003;28;19908;-54
2023/01/30 06:30:56;;;;;;;;;;;17.90;84.50;;;;;;5097053;28;20270;-54
2023/01/30 06:33:21;;;;;;;;;;;17.90;84.50;;;;;;5097350;28;19908;-52
2023/01/30 06:35:48;;;;;;;;;;;17.90;84.60;;;;;;5078655;28;19970;-48
2023/01/30 06:38:14;;;;;;;;;;;17.80;84.60;;;;;;5097318;28;19920;-54
2023/01/30 06:40:40;;;;;;;;;;;17.80;84.80;;;;;;5096998;28;20008;-52
2023/01/30 06:43:05;;;;;;;;;;;17.90;84.90;;;;;;5096951;28;19924;-51
2023/01/30 06:45:31;;;;;;;;;;;17.80;84.90;;;;;;5096867;28;19912;-53
2023/01/30 06:47:56;;;;;;;;;;;17.80;85.10;;;;;;5097076;28;19912;-52
2023/01/30 06:50:23;;;;;;;;;;;17.80;85.30;;;;;;5096609;28;19969;-53
2023/01/30 06:52:50;;;;;;;;;;;17.80;85.20;;;;;;5096455;28;19951;-53
2023/01/30 06:55:16;;;;;;;;;;;17.90;85.40;;;;;;5097007;28;19911;-52
2023/01/30 06:57:42;;;;;;;;;;;17.80;85.30;;;;;;5096918;28;19998;-53
2023/01/30 07:00:15;;;;;;;;;;;17.90;85.00;;;;;;5096423;28;20002;-52
2023/01/30 07:02:41;;;;;;;;;;;18.00;84.50;;;;;;5096146;28;19912;-53
2023/01/30 07:05:07;;;;;;;;;;;18.10;84.50;;;;;;5078209;28;19908;-48
2023/01/30 07:07:33;;;;;;;;;;;18.20;84.20;;;;;;5096798;28;19908;-51
2023/01/30 07:09:58;;;;;;;;;;;18.30;83.90;;;;;;5095648;28;20408;-51
2023/01/30 07:12:24;;;;;;;;;;;18.40;83.80;;;;;;5077923;28;19909;-52
2023/01/30 07:14:51;;;;;;;;;;;18.50;83.40;;;;;;5096057;28;19973;-51
2023/01/30 07:17:16;;;;;;;;;;;18.60;83.10;;;;;;5077964;28;19915;-54
2023/01/30 07:19:42;;;;;;;;;;;18.70;82.70;;;;;;5096266;28;20266;-50
2023/01/30 07:22:07;;;;;;;;;;;18.80;82.50;;;;;;5096127;28;19916;-50
2023/01/30 07:24:33;;;;;;;;;;;19.00;81.80;;;;;;5096131;28;19908;-53
2023/01/30 07:26:58;;;;;;;;;;;19.10;82.20;;;;;;5096186;28;19934;-49
2023/01/30 07:29:24;;;;;;;;;;;19.20;81.60;;;;;;5095870;28;19908;-50
2023/01/30 07:31:50;;;;;;;;;;;19.30;81.50;;;;;;5095597;28;19915;-53
2023/01/30 07:34:15;;;;;;;;;;;19.40;81.10;;;;;;5095805;28;19912;-53
2023/01/30 07:36:41;;;;;;;;;;;19.50;80.60;;;;;;5095469;28;19908;-53
2023/01/30 07:39:08;;;;;;;;;;;19.60;80.60;;;;;;5096366;28;19934;-54
2023/01/30 07:41:34;;;;;;;;;;;19.70;80.60;;;;;;5095932;28;19919;-54
2023/01/30 07:43:59;;;;;;;;;;;19.70;80.00;;;;;;5096226;28;19913;-53
2023/01/30 07:46:25;;;;;;;;;;;19.80;79.90;;;;;;5095739;28;19918;-53
2023/01/30 07:48:50;;;;;;;;;;;19.80;80.00;;;;;;5095382;28;19991;-49
2023/01/30 07:51:15;;;;;;;;;;;19.80;80.00;;;;;;5095605;28;20373;-53
2023/01/30 07:53:41;;;;;;;;;;;19.80;79.60;;;;;;5095615;28;19930;-51
2023/01/30 07:56:13;;;;;;;;;;;19.80;79.90;;;;;;5095439;28;19917;-48
2023/01/30 07:58:38;;;;;;;;;;;19.80;79.80;;;;;;5095442;28;20303;-50
2023/01/30 08:01:04;;;;;;;;;;;19.80;80.10;;;;;;5095459;28;19957;-54
2023/01/30 08:03:29;;;;;;;;;;;19.80;80.00;;;;;;5095269;28;19912;-49
2023/01/30 08:05:55;;;;;;;;;;;19.80;80.10;;;;;;5095266;28;19912;-52
2023/01/30 08:08:20;;;;;;;;;;;19.80;80.10;;;;;;5095393;28;20363;-53
2023/01/30 08:10:49;;;;;;;;;;;19.80;80.30;;;;;;5095091;28;19912;-52
2023/01/30 08:13:14;;;;;;;;;;;19.70;80.20;;;;;;5076901;28;19908;-52
2023/01/30 08:15:40;;;;;;;;;;;19.70;80.40;;;;;;5094819;28;20284;-52
2023/01/30 08:18:08;;;;;;;;;;;19.70;80.40;;;;;;5095414;28;19908;-53
2023/01/30 08:20:34;;;;;;;;;;;19.60;80.30;;;;;;5093860;28;20351;-51
2023/01/30 08:23:01;;;;;;;;;;;19.60;80.50;;;;;;5094592;28;19940;-52
2023/01/30 08:25:27;;;;;;;;;;;19.50;80.60;;;;;;5094679;28;19921;-50
2023/01/30 08:27:52;;;;;;;;;;;19.60;80.30;;;;;;5076892;28;19995;-50
2023/01/30 08:30:18;;;;;;;;;;;19.60;80.60;;;;;;5094720;28;19916;-54
2023/01/30 08:32:44;;;;;;;;;;;19.60;80.20;;;;;;5094566;28;19908;-51
2023/01/30 08:35:09;;;;;;;;;;;19.60;80.50;;;;;;5095126;28;19919;-54
2023/01/30 08:37:35;;;;;;;;;;;19.60;80.50;;;;;;5094706;28;19928;-53
2023/01/30 08:40:01;;;;;;;;;;;19.60;80.40;;;;;;5094658;28;19915;-51
2023/01/30 08:42:26;;;;;;;;;;;19.60;80.50;;;;;;5094757;28;20027;-49
2023/01/30 08:44:52;;;;;;;;;;;19.70;80.30;;;;;;5072303;28;19935;-49
2023/01/30 08:47:17;;;;;;;;;;;19.70;79.80;;;;;;5098056;28;19912;-53
2023/01/30 08:49:43;;;;;;;;;;;19.80;79.40;;;;;;5098533;28;19912;-50
2023/01/30 08:52:08;;;;;;;;;;;19.80;79.20;;;;;;5093592;28;20011;-51
2023/01/30 08:54:34;;;;;;;;;;;19.80;79.70;;;;;;5095221;28;19919;-48
2023/01/30 08:56:59;;;;;;;;;;;19.80;80.00;;;;;;5100844;28;20028;-50
2023/01/30 08:59:25;;;;;;;;;;;19.80;79.70;;;;;;5097980;28;19922;-52
2023/01/30 09:01:50;;;;;;;;;;;19.70;79.80;;;;;;5097234;28;19916;-49
2023/01/30 09:04:16;;;;;;;;;;;19.70;79.60;;;;;;5086369;28;19912;-49
2023/01/30 09:06:41;;;;;;;;;;;19.70;79.80;;;;;;5081935;28;19912;-52
2023/01/30 09:09:07;;;;;;;;;;;19.70;79.50;;;;;;5094540;28;19953;-49
2023/01/30 09:11:32;;;;;;;;;;;19.60;80.00;;;;;;5093098;28;19912;-51
2023/01/30 09:13:58;;;;;;;;;;;19.60;80.10;;;;;;5094526;28;20420;-50
2023/01/30 09:16:23;;;;;;;;;;;19.60;80.00;;;;;;5094521;28;19927;-50
2023/01/30 09:18:49;;;;;;;;;;;19.60;80.20;;;;;;5093384;28;20359;-52
2023/01/30 09:21:14;;;;;;;;;;;19.50;80.60;;;;;;5074549;28;19958;-50
2023/01/30 09:23:40;;;;;;;;;;;19.50;80.50;;;;;;5091188;28;19920;-53
2023/01/30 09:26:05;;;;;;;;;;;19.60;79.80;;;;;;5092754;28;20346;-54
2023/01/30 09:28:31;;;;;;;;;;;19.50;80.30;;;;;;5084665;28;19915;-52
2023/01/30 09:30:57;;;;;;;;;;;19.60;80.40;;;;;;5098348;28;19958;-54
2023/01/30 09:33:22;;;;;;;;;;;19.70;79.10;;;;;;5091662;28;19919;-52
2023/01/30 09:35:48;;;;;;;;;;;19.70;79.20;;;;;;5081541;28;19919;-53
2023/01/30 09:38:14;;;;;;;;;;;19.70;79.30;;;;;;5092774;28;19955;-52
2023/01/30 09:40:48;;;;;;;;;;;19.70;77.30;;;;;;5083846;28;19956;-56
2023/01/30 09:43:22;;;;;;;;;;;19.70;76.70;;;;;;5085456;28;19916;-52
2023/01/30 09:45:50;;;;;;;;;;;19.80;77.00;;;;;;5088878;28;19999;-54
2023/01/30 09:48:28;;;;;;;;;;;19.80;78.80;;;;;;5099396;28;19952;-53
2023/01/30 09:51:12;;;;;;;;;;;19.90;78.60;;;;;;5097324;28;19912;-55
2023/01/30 09:53:52;;;;;;;;;;;19.90;79.10;;;;;;5095314;28;19951;-56
2023/01/30 09:56:17;;;;;;;;;;;19.80;79.20;;;;;;5109485;28;20002;-55
2023/01/30 09:59:12;;;;;;;;;;;19.80;79.60;;;;;;5073525;28;20008;-54
2023/01/30 10:01:47;;;;;;;;;;;19.80;79.40;;;;;;5058433;28;20006;-55
2023/01/30 10:04:26;;;;;;;;;;;19.70;79.90;;;;;;5090842;28;20367;-57
2023/01/30 10:07:14;;;;;;;;;;;19.70;79.90;;;;;;5093494;28;19908;-57
2023/01/30 10:09:40;;;;;;;;;;;19.70;79.90;;;;;;5064579;28;19912;-52
2023/01/30 10:12:24;;;;;;;;;;;19.70;79.90;;;;;;5093358;28;19909;-54
2023/01/30 10:15:02;;;;;;;;;;;19.70;80.10;;;;;;5097034;28;19913;-55
2023/01/30 10:17:33;;;;;;;;;;;19.60;80.00;;;;;;5089361;28;20359;-57
2023/01/30 10:20:05;;;;;;;;;;;19.60;80.00;;;;;;5093008;28;19927;-51
2023/01/30 10:22:37;;;;;;;;;;;19.60;79.90;;;;;;5093332;28;19912;-55
2023/01/30 10:25:05;;;;;;;;;;;19.60;79.90;;;;;;5093182;28;19908;-53
2023/01/30 10:27:31;;;;;;;;;;;19.60;80.10;;;;;;5075138;28;19915;-54
2023/01/30 10:29:59;;;;;;;;;;;19.50;79.90;;;;;;5073716;28;19951;-55
2023/01/30 10:32:40;;;;;;;;;;;19.50;80.00;;;;;;5085007;28;19912;-54
2023/01/30 10:35:12;;;;;;;;;;;19.50;79.70;;;;;;5093056;28;20282;-57
2023/01/30 10:37:46;;;;;;;;;;;19.60;80.00;;;;;;5092803;28;19920;-55
2023/01/30 10:40:20;;;;;;;;;;;19.60;79.90;;;;;;5099683;28;19912;-57
2023/01/30 10:43:06;;;;;;;;;;;19.60;79.80;;;;;;5113681;28;19930;-56
2023/01/30 10:45:37;;;;;;;;;;;19.60;79.90;;;;;;5099145;28;19934;-56
2023/01/30 10:48:18;;;;;;;;;;;19.60;79.80;;;;;;5106391;28;20333;-55
2023/01/30 10:50:49;;;;;;;;;;;19.60;79.50;;;;;;5076860;28;19916;-56
2023/01/30 10:53:19;;;;;;;;;;;19.60;79.60;;;;;;5084121;28;20259;-54
2023/01/30 10:55:51;;;;;;;;;;;19.60;79.70;;;;;;5088788;28;19965;-57
2023/01/30 10:58:16;;;;;;;;;;;19.50;79.80;;;;;;5077117;28;20295;-54
2023/01/30 11:00:54;;;;;;;;;;;19.50;79.70;;;;;;5095052;28;19938;-56
2023/01/30 11:03:20;;;;;;;;;;;19.50;79.90;;;;;;5101945;28;20337;-57
2023/01/30 11:05:48;;;;;;;;;;;19.50;80.00;;;;;;5108833;28;19916;-54
2023/01/30 11:08:18;;;;;;;;;;;19.40;79.90;;;;;;5098635;28;19914;-55
2023/01/30 11:10:44;;;;;;;;;;;19.40;80.00;;;;;;5101793;28;19938;-53
2023/01/30 11:13:13;;;;;;;;;;;19.30;80.10;;;;;;5116016;28;19908;-53
2023/01/30 11:15:39;;;;;;;;;;;19.30;80.10;;;;;;5113808;28;20056;-54
2023/01/30 11:18:06;;;;;;;;;;;19.30;80.10;;;;;;5105949;28;19949;-54
2023/01/30 11:20:37;;;;;;;;;;;19.30;80.20;;;;;;5092395;28;19916;-56
2023/01/30 11:23:04;;;;;;;;;;;19.30;80.20;;;;;;5095818;28;20359;-53
2023/01/30 11:25:29;;;;;;;;;;;19.30;80.00;;;;;;5077617;28;19908;-58
2023/01/30 11:27:58;;;;;;;;;;;19.30;80.10;;;;;;5095804;28;20358;-55
2023/01/30 11:30:43;;;;;;;;;;;19.30;79.80;;;;;;5077875;28;19916;-56
2023/01/30 11:33:12;;;;;;;;;;;19.40;79.80;;;;;;5095714;28;19908;-55
2023/01/30 11:35:44;;;;;;;;;;;19.50;79.40;;;;;;5095878;28;19908;-54
2023/01/30 11:38:12;;;;;;;;;;;19.70;79.40;;;;;;5095479;28;19927;-55
2023/01/30 11:40:39;;;;;;;;;;;19.70;79.00;;;;;;5095661;28;20010;-53
2023/01/30 11:43:05;;;;;;;;;;;19.80;78.90;;;;;;5095401;28;19912;-56
2023/01/30 11:45:35;;;;;;;;;;;19.90;78.50;;;;;;5095746;28;19994;-54
2023/01/30 11:48:03;;;;;;;;;;;20.10;78.30;;;;;;5095697;28;20355;-56
2023/01/30 11:50:37;;;;;;;;;;;20.10;78.20;;;;;;5095428;28;19908;-54
2023/01/30 11:53:06;;;;;;;;;;;20.20;77.90;;;;;;5095287;28;19908;-55
2023/01/30 11:55:34;;;;;;;;;;;20.30;77.90;;;;;;5094622;28;19908;-55
2023/01/30 11:58:01;;;;;;;;;;;20.20;77.80;;;;;;5095286;28;20426;-56
2023/01/30 12:00:35;;;;;;;;;;;20.20;77.80;;;;;;5095042;28;19912;-54
2023/01/30 12:03:03;;;;;;;;;;;20.10;77.90;;;;;;5077447;28;19919;-54
2023/01/30 12:05:31;;;;;;;;;;;20.10;78.10;;;;;;5095327;28;19908;-56
2023/01/30 12:08:15;;;;;;;;;;;20.00;78.30;;;;;;5094832;28;20295;-55
2023/01/30 12:10:44;;;;;;;;;;;20.00;78.50;;;;;;5095434;28;20090;-57
2023/01/30 12:13:15;;;;;;;;;;;19.90;78.40;;;;;;5095577;28;20378;-57
2023/01/30 12:15:41;;;;;;;;;;;19.90;78.60;;;;;;5095230;28;19908;-54
2023/01/30 12:18:09;;;;;;;;;;;19.90;78.70;;;;;;5076556;28;20351;-55
2023/01/30 12:20:48;;;;;;;;;;;19.80;78.80;;;;;;5094898;28;19916;-57
2023/01/30 12:23:19;;;;;;;;;;;19.70;78.90;;;;;;5076734;28;20278;-56
2023/01/30 12:26:03;;;;;;;;;;;19.70;78.90;;;;;;5076580;28;19957;-57
2023/01/30 12:28:33;;;;;;;;;;;19.70;79.10;;;;;;5094501;28;19908;-56
2023/01/30 12:31:19;;;;;;;;;;;19.70;78.90;;;;;;5094958;28;19908;-56
2023/01/30 12:33:44;;;;;;;;;;;19.70;78.90;;;;;;5083455;28;19915;-57
2023/01/30 12:36:18;;;;;;;;;;;19.60;78.70;;;;;;5092780;28;19918;-56
2023/01/30 12:38:55;;;;;;;;;;;19.70;78.70;;;;;;5094093;28;19988;-56
2023/01/30 12:41:33;;;;;;;;;;;19.70;78.70;;;;;;5094465;28;19969;-55
2023/01/30 12:44:17;;;;;;;;;;;19.70;78.70;;;;;;5092080;28;20316;-55
2023/01/30 12:46:46;;;;;;;;;;;19.70;78.70;;;;;;5093279;28;20273;-55
2023/01/30 12:49:30;;;;;;;;;;;19.80;78.60;;;;;;5093985;28;19908;-55
2023/01/30 12:51:58;;;;;;;;;;;19.80;78.50;;;;;;5083625;28;19916;-55
2023/01/30 12:54:35;;;;;;;;;;;19.80;78.40;;;;;;5093656;28;19916;-55
2023/01/30 12:57:01;;;;;;;;;;;19.90;78.40;;;;;;5094183;28;19908;-55
2023/01/30 12:59:47;;;;;;;;;;;19.90;78.20;;;;;;5094293;28;19908;-54
2023/01/30 13:02:22;;;;;;;;;;;19.90;78.20;;;;;;5094146;28;19912;-55
2023/01/30 13:05:07;;;;;;;;;;;19.90;78.30;;;;;;5092043;28;19981;-53
2023/01/30 13:07:41;;;;;;;;;;;19.90;78.40;;;;;;5083191;28;19951;-53
2023/01/30 13:10:15;;;;;;;;;;;19.80;78.30;;;;;;5095804;28;19908;-55
2023/01/30 13:12:43;;;;;;;;;;;19.80;78.40;;;;;;5091649;28;20052;-55
2023/01/30 13:15:15;;;;;;;;;;;19.80;78.50;;;;;;5094327;28;19909;-55
2023/01/30 13:17:49;;;;;;;;;;;19.70;78.70;;;;;;5093969;28;19908;-56
2023/01/30 13:20:20;;;;;;;;;;;19.70;78.70;;;;;;5094058;28;19909;-55
2023/01/30 13:23:00;;;;;;;;;;;19.60;78.80;;;;;;5094186;28;19969;-56
2023/01/30 13:25:25;;;;;;;;;;;19.60;78.90;;;;;;5093818;28;19962;-56
2023/01/30 13:27:54;;;;;;;;;;;19.60;79.10;;;;;;5094060;28;20265;-56
2023/01/30 13:30:19;;;;;;;;;;;19.50;79.10;;;;;;5094300;28;19908;-56
2023/01/30 13:32:45;;;;;;;;;;;19.50;79.30;;;;;;5075962;28;19912;-55
2023/01/30 13:35:19;;;;;;;;;;;19.50;79.30;;;;;;5075848;28;19908;-54
2023/01/30 13:37:46;;;;;;;;;;;19.50;79.30;;;;;;5093836;28;19920;-54
2023/01/30 13:40:14;;;;;;;;;;;19.50;79.20;;;;;;5093666;28;19908;-56
2023/01/30 13:42:46;;;;;;;;;;;19.50;79.20;;;;;;5093761;28;20278;-56
2023/01/30 13:45:20;;;;;;;;;;;19.50;79.10;;;;;;5093682;28;19908;-54
2023/01/30 13:47:59;;;;;;;;;;;19.50;79.00;;;;;;5093519;28;20366;-55
2023/01/30 13:50:25;;;;;;;;;;;19.60;79.10;;;;;;5093934;28;20270;-56
2023/01/30 13:52:56;;;;;;;;;;;19.60;78.90;;;;;;5093673;28;19908;-56
2023/01/30 13:55:24;;;;;;;;;;;19.70;78.90;;;;;;5093698;28;19915;-53
2023/01/30 13:58:02;;;;;;;;;;;19.70;78.80;;;;;;5093869;28;19934;-56
2023/01/30 14:00:30;;;;;;;;;;;19.70;78.60;;;;;;5093256;28;20053;-55
2023/01/30 14:03:02;;;;;;;;;;;19.80;78.50;;;;;;5093284;28;19920;-54
2023/01/30 14:05:46;;;;;;;;;;;19.80;78.50;;;;;;5093166;28;19908;-55
2023/01/30 14:08:16;;;;;;;;;;;19.80;78.40;;;;;;5093507;28;19991;-55
2023/01/30 14:10:41;;;;;;;;;;;19.80;78.40;;;;;;5093432;28;19928;-56
2023/01/30 14:13:07;;;;;;;;;;;19.80;78.50;;;;;;5093521;28;20047;-56
2023/01/30 14:15:32;;;;;;;;;;;19.80;78.50;;;;;;5093542;28;20057;-57
2023/01/30 14:18:04;;;;;;;;;;;19.80;78.50;;;;;;5093377;28;20488;-54
2023/01/30 14:20:34;;;;;;;;;;;19.80;78.40;;;;;;5097365;28;20006;-55
2023/01/30 14:23:04;;;;;;;;;;;19.70;78.40;;;;;;5097022;28;19912;-54
2023/01/30 14:25:31;;;;;;;;;;;19.70;78.60;;;;;;5095248;28;20318;-55
2023/01/30 14:28:00;;;;;;;;;;;19.70;78.40;;;;;;5095398;28;20007;-57